Alianca Shanghai — A8CQ5 — position and weather

sailwx.info

Track history (hours):
 
Tides and Currents Weather Stations Pressure Air Temp Water Temp Dewpoint Dewpoint Depression Visibility Wind Speed Wind Dir Waves Ship Positions

Alianca Shanghai

Last reported at 2016-Jul-23 14:33 UTC. Time now 2016-Jul-23 15:07 UTC.
Position N 09°31' W 013°43'.

Length 199.9 m; beam 29.8 m; draft 11.6 m.

Type: Ship. MMSI: 636016014.

Date/timePositionNaut miles runAvg speedWind from/ knotsBaromVisibWave heightAir tempDewpointWater temp
2016-Jul-23 14:33N 09°31' W 013°43'0 0.0
2016-Jul-23 13:31N 09°31' W 013°43'0 0.0
2016-Jul-23 12:31N 09°31' W 013°43'0 0.0
2016-Jul-23 11:31N 09°31' W 013°43'0 0.0
2016-Jul-23 10:31N 09°31' W 013°43'0 0.4
2016-Jul-23 09:33N 09°30' W 013°44'7 6.9
2016-Jul-23 08:34N 09°23' W 013°43'  
2016-Jul-19 02:33N 28°06' W 015°22'3 3.3
2016-Jul-19 01:33N 28°08' W 015°25'0 0.0
2016-Jul-19 00:33N 28°08' W 015°25'0 0.0
2016-Jul-18 23:33N 28°08' W 015°25'0 0.0
2016-Jul-18 22:33N 28°08' W 015°25'0 0.0
2016-Jul-18 21:33N 28°08' W 015°25'0 0.0
2016-Jul-18 20:33N 28°08' W 015°25'0 0.0
2016-Jul-18 19:30N 28°08' W 015°25'0 0.0
2016-Jul-18 18:30N 28°08' W 015°25'0 0.0
2016-Jul-18 17:33N 28°08' W 015°25'0 0.0
2016-Jul-18 16:33N 28°08' W 015°25'0 0.0
2016-Jul-18 15:33N 28°08' W 015°25'0 0.0
2016-Jul-18 14:33N 28°08' W 015°25'0 0.0
2016-Jul-18 13:33N 28°08' W 015°25'0 0.0
2016-Jul-18 12:33N 28°08' W 015°25'0 0.0
2016-Jul-18 11:33N 28°08' W 015°25'0 0.0
2016-Jul-18 10:33N 28°08' W 015°25'0 0.0
2016-Jul-18 09:33N 28°08' W 015°25'2 2.5
2016-Jul-18 08:33N 28°08' W 015°22'15815.1
2016-Jul-17 22:05N 29°59' W 013°13'360 7.8
2016-Jul-16 00:10N 33°37' W 007°36'0 0.2
2016-Jul-15 23:26N 33°37' W 007°36'3 3.9
2016-Jul-15 22:33N 33°40' W 007°34'7 6.6
2016-Jul-15 21:32N 33°46' W 007°36'4614.0
2016-Jul-15 18:14N 34°29' W 007°58'1014.0
2016-Jul-15 17:31N 34°38' W 008°03'2713.8
2016-Jul-15 15:33N 35°03' W 008°16'12413.2
2016-Jul-15 06:08N 36°50' W 009°34'1014.2
2016-Jul-15 05:27N 36°59' W 009°36'1314.1
2016-Jul-15 04:33N 37°09' W 009°27'1414.0
2016-Jul-15 03:33N 37°21' W 009°16'1414.0
2016-Jul-15 02:33N 37°33' W 009°08'1413.7
2016-Jul-15 01:33N 37°44' W 008°58'1312.6
2016-Jul-15 00:33N 37°55' W 008°50'1 0.7
2016-Jul-14 23:33N 37°56' W 008°51'0 0.0
2016-Jul-14 22:30N 37°56' W 008°51'0 0.0
2016-Jul-14 21:33N 37°56' W 008°51'0 0.0
2016-Jul-14 20:33N 37°56' W 008°51'0 0.0
2016-Jul-14 19:33N 37°56' W 008°51'0 0.0
2016-Jul-14 18:30N 37°56' W 008°51'0 0.0
2016-Jul-14 17:33N 37°56' W 008°51'0 0.0
2016-Jul-14 16:33N 37°56' W 008°51'0 0.0
2016-Jul-14 15:33N 37°56' W 008°51'0 0.0
2016-Jul-14 14:33N 37°56' W 008°51'0 0.0
2016-Jul-14 13:33N 37°56' W 008°51'0 0.0
2016-Jul-14 12:30N 37°56' W 008°51'0 0.0
2016-Jul-14 11:33N 37°56' W 008°51'0 0.0
2016-Jul-14 10:32N 37°56' W 008°51'0 0.0
2016-Jul-14 09:33N 37°56' W 008°51'2 2.5
2016-Jul-14 08:33N 37°53' W 008°51'7 7.3
2016-Jul-14 07:33N 37°48' W 008°57'1010.4
2016-Jul-14 06:34N 37°51' W 009°09'1413.7
2016-Jul-14 05:33N 37°54' W 009°26'1414.2
2016-Jul-14 04:33N 37°58' W 009°44'1312.6
2016-Jul-14 03:33N 38°07' W 009°55'1514.7
2016-Jul-14 02:33N 38°21' W 009°59'1515.0
2016-Jul-14 01:33N 38°36' W 010°03'1715.1
2016-Jul-14 00:26N 38°52' W 010°08'  
Track history (hours):
 
Tides and Currents Weather Stations Pressure Air Temp Water Temp Dewpoint Dewpoint Depression Visibility Wind Speed Wind Dir Waves Ship Positions

Alianca Shanghai

Last reported at 2016-Jul-23 14:33 UTC. Time now 2016-Jul-23 15:07 UTC.
Position N 09°31' W 013°43'.

Length 199.9 m; beam 29.8 m; draft 11.6 m.

Type: Ship. MMSI: 636016014.

Date/timePositionNaut miles runAvg speedWind from/ knotsBaromVisibWave heightAir tempDewpointWater temp
2016-Jul-23 14:33N 09°31' W 013°43'0 0.0
2016-Jul-23 13:31N 09°31' W 013°43'0 0.0
2016-Jul-23 12:31N 09°31' W 013°43'0 0.0
2016-Jul-23 11:31N 09°31' W 013°43'0 0.0
2016-Jul-23 10:31N 09°31' W 013°43'0 0.4
2016-Jul-23 09:33N 09°30' W 013°44'7 6.9
2016-Jul-23 08:34N 09°23' W 013°43'  
2016-Jul-19 02:33N 28°06' W 015°22'3 3.3
2016-Jul-19 01:33N 28°08' W 015°25'0 0.0
2016-Jul-19 00:33N 28°08' W 015°25'0 0.0
2016-Jul-18 23:33N 28°08' W 015°25'0 0.0
2016-Jul-18 22:33N 28°08' W 015°25'0 0.0
2016-Jul-18 21:33N 28°08' W 015°25'0 0.0
2016-Jul-18 20:33N 28°08' W 015°25'0 0.0
2016-Jul-18 19:30N 28°08' W 015°25'0 0.0
2016-Jul-18 18:30N 28°08' W 015°25'0 0.0
2016-Jul-18 17:33N 28°08' W 015°25'0 0.0
2016-Jul-18 16:33N 28°08' W 015°25'0 0.0
2016-Jul-18 15:33N 28°08' W 015°25'0 0.0
2016-Jul-18 14:33N 28°08' W 015°25'0 0.0
2016-Jul-18 13:33N 28°08' W 015°25'0 0.0
2016-Jul-18 12:33N 28°08' W 015°25'0 0.0
2016-Jul-18 11:33N 28°08' W 015°25'0 0.0
2016-Jul-18 10:33N 28°08' W 015°25'0 0.0
2016-Jul-18 09:33N 28°08' W 015°25'2 2.5
2016-Jul-18 08:33N 28°08' W 015°22'15815.1
2016-Jul-17 22:05N 29°59' W 013°13'360 7.8
2016-Jul-16 00:10N 33°37' W 007°36'0 0.2
2016-Jul-15 23:26N 33°37' W 007°36'3 3.9
2016-Jul-15 22:33N 33°40' W 007°34'7 6.6
2016-Jul-15 21:32N 33°46' W 007°36'4614.0
2016-Jul-15 18:14N 34°29' W 007°58'1014.0
2016-Jul-15 17:31N 34°38' W 008°03'2713.8
2016-Jul-15 15:33N 35°03' W 008°16'12413.2
2016-Jul-15 06:08N 36°50' W 009°34'1014.2
2016-Jul-15 05:27N 36°59' W 009°36'1314.1
2016-Jul-15 04:33N 37°09' W 009°27'1414.0
2016-Jul-15 03:33N 37°21' W 009°16'1414.0
2016-Jul-15 02:33N 37°33' W 009°08'1413.7
2016-Jul-15 01:33N 37°44' W 008°58'1312.6
2016-Jul-15 00:33N 37°55' W 008°50'1 0.7
2016-Jul-14 23:33N 37°56' W 008°51'0 0.0
2016-Jul-14 22:30N 37°56' W 008°51'0 0.0
2016-Jul-14 21:33N 37°56' W 008°51'0 0.0
2016-Jul-14 20:33N 37°56' W 008°51'0 0.0
2016-Jul-14 19:33N 37°56' W 008°51'0 0.0
2016-Jul-14 18:30N 37°56' W 008°51'0 0.0
2016-Jul-14 17:33N 37°56' W 008°51'0 0.0
2016-Jul-14 16:33N 37°56' W 008°51'0 0.0
2016-Jul-14 15:33N 37°56' W 008°51'0 0.0
2016-Jul-14 14:33N 37°56' W 008°51'0 0.0
2016-Jul-14 13:33N 37°56' W 008°51'0 0.0
2016-Jul-14 12:30N 37°56' W 008°51'0 0.0
2016-Jul-14 11:33N 37°56' W 008°51'0 0.0
2016-Jul-14 10:32N 37°56' W 008°51'0 0.0
2016-Jul-14 09:33N 37°56' W 008°51'2 2.5
2016-Jul-14 08:33N 37°53' W 008°51'7 7.3
2016-Jul-14 07:33N 37°48' W 008°57'1010.4
2016-Jul-14 06:34N 37°51' W 009°09'1413.7
2016-Jul-14 05:33N 37°54' W 009°26'1414.2
2016-Jul-14 04:33N 37°58' W 009°44'1312.6
2016-Jul-14 03:33N 38°07' W 009°55'1514.7
2016-Jul-14 02:33N 38°21' W 009°59'1515.0
2016-Jul-14 01:33N 38°36' W 010°03'1715.1
2016-Jul-14 00:26N 38°52' W 010°08'  

Dump ship's entire track history